sensor_id;sensor_type;location;lat;lon;timestamp;P1;durP1;ratioP1;P2;durP2;ratioP2
55146;SDS011;41039;49.830;23.988;2023-07-13T00:00:24;6.38;;;5.65;;
55146;SDS011;41039;49.830;23.988;2023-07-13T00:02:50;6.45;;;5.47;;
55146;SDS011;41039;49.830;23.988;2023-07-13T00:05:18;8.25;;;7.47;;
55146;SDS011;41039;49.830;23.988;2023-07-13T00:07:43;9.52;;;7.13;;
55146;SDS011;41039;49.830;23.988;2023-07-13T00:10:11;8.07;;;6.30;;
55146;SDS011;41039;49.830;23.988;2023-07-13T00:12:37;7.45;;;5.90;;
55146;SDS011;41039;49.830;23.988;2023-07-13T00:15:04;8.48;;;5.88;;
55146;SDS011;41039;49.830;23.988;2023-07-13T00:17:30;8.07;;;5.60;;
55146;SDS011;41039;49.830;23.988;2023-07-13T00:19:55;6.77;;;5.60;;
55146;SDS011;41039;49.830;23.988;2023-07-13T00:22:21;7.40;;;5.95;;
55146;SDS011;41039;49.830;23.988;2023-07-13T00:24:50;6.25;;;4.75;;
55146;SDS011;41039;49.830;23.988;2023-07-13T00:27:17;7.22;;;5.55;;
55146;SDS011;41039;49.830;23.988;2023-07-13T00:29:42;6.68;;;5.97;;
55146;SDS011;41039;49.830;23.988;2023-07-13T00:32:08;5.97;;;5.35;;
55146;SDS011;41039;49.830;23.988;2023-07-13T00:34:34;6.50;;;5.60;;
55146;SDS011;41039;49.830;23.988;2023-07-13T00:36:59;6.93;;;5.65;;
55146;SDS011;41039;49.830;23.988;2023-07-13T00:39:24;6.60;;;5.00;;
55146;SDS011;41039;49.830;23.988;2023-07-13T00:41:50;7.40;;;5.40;;
55146;SDS011;41039;49.830;23.988;2023-07-13T00:44:16;6.97;;;5.45;;
55146;SDS011;41039;49.830;23.988;2023-07-13T00:46:41;6.38;;;5.50;;
55146;SDS011;41039;49.830;23.988;2023-07-13T00:49:07;8.13;;;5.35;;
55146;SDS011;41039;49.830;23.988;2023-07-13T00:54:13;8.27;;;6.07;;
55146;SDS011;41039;49.830;23.988;2023-07-13T00:56:40;8.18;;;6.70;;
55146;SDS011;41039;49.830;23.988;2023-07-13T00:59:06;7.20;;;6.10;;
55146;SDS011;41039;49.830;23.988;2023-07-13T01:01:33;8.10;;;6.50;;
55146;SDS011;41039;49.830;23.988;2023-07-13T01:03:58;7.65;;;5.47;;
55146;SDS011;41039;49.830;23.988;2023-07-13T01:06:24;7.03;;;5.95;;
55146;SDS011;41039;49.830;23.988;2023-07-13T01:08:49;7.97;;;6.10;;
55146;SDS011;41039;49.830;23.988;2023-07-13T01:11:18;7.22;;;5.50;;
55146;SDS011;41039;49.830;23.988;2023-07-13T01:13:43;7.13;;;5.45;;
55146;SDS011;41039;49.830;23.988;2023-07-13T01:16:13;9.33;;;5.27;;
55146;SDS011;41039;49.830;23.988;2023-07-13T01:18:40;7.55;;;5.85;;
55146;SDS011;41039;49.830;23.988;2023-07-13T01:21:05;8.20;;;5.53;;
55146;SDS011;41039;49.830;23.988;2023-07-13T01:23:30;7.38;;;6.03;;
55146;SDS011;41039;49.830;23.988;2023-07-13T01:25:56;6.97;;;5.75;;
55146;SDS011;41039;49.830;23.988;2023-07-13T01:28:22;9.73;;;5.78;;
55146;SDS011;41039;49.830;23.988;2023-07-13T01:30:48;8.48;;;5.50;;
55146;SDS011;41039;49.830;23.988;2023-07-13T01:33:16;7.68;;;5.55;;
55146;SDS011;41039;49.830;23.988;2023-07-13T01:35:43;6.72;;;5.47;;
55146;SDS011;41039;49.830;23.988;2023-07-13T01:38:08;9.20;;;6.40;;
55146;SDS011;41039;49.830;23.988;2023-07-13T01:40:34;7.25;;;6.22;;
55146;SDS011;41039;49.830;23.988;2023-07-13T01:43:00;6.90;;;5.60;;
55146;SDS011;41039;49.830;23.988;2023-07-13T01:45:25;8.15;;;6.50;;
55146;SDS011;41039;49.830;23.988;2023-07-13T01:47:51;7.57;;;6.80;;
55146;SDS011;41039;49.830;23.988;2023-07-13T01:50:16;9.23;;;7.10;;
55146;SDS011;41039;49.830;23.988;2023-07-13T01:52:41;8.30;;;7.30;;
55146;SDS011;41039;49.830;23.988;2023-07-13T01:55:07;7.22;;;6.53;;
55146;SDS011;41039;49.830;23.988;2023-07-13T01:57:32;7.63;;;6.13;;
55146;SDS011;41039;49.830;23.988;2023-07-13T01:59:58;7.93;;;6.25;;
55146;SDS011;41039;49.830;23.988;2023-07-13T02:02:23;6.70;;;5.27;;
55146;SDS011;41039;49.830;23.988;2023-07-13T02:04:48;7.65;;;6.13;;
55146;SDS011;41039;49.830;23.988;2023-07-13T02:07:13;9.60;;;6.40;;
55146;SDS011;41039;49.830;23.988;2023-07-13T02:09:40;7.43;;;5.72;;
55146;SDS011;41039;49.830;23.988;2023-07-13T02:12:05;6.35;;;5.60;;
55146;SDS011;41039;49.830;23.988;2023-07-13T02:14:31;7.18;;;6.25;;
55146;SDS011;41039;49.830;23.988;2023-07-13T02:16:56;6.45;;;5.25;;
55146;SDS011;41039;49.830;23.988;2023-07-13T02:19:21;6.50;;;5.60;;
55146;SDS011;41039;49.830;23.988;2023-07-13T02:21:46;7.63;;;5.50;;
55146;SDS011;41039;49.830;23.988;2023-07-13T02:24:12;7.90;;;5.80;;
55146;SDS011;41039;49.830;23.988;2023-07-13T02:26:42;6.70;;;5.85;;
55146;SDS011;41039;49.830;23.988;2023-07-13T02:29:07;10.30;;;5.60;;
55146;SDS011;41039;49.830;23.988;2023-07-13T02:31:32;7.87;;;6.37;;
55146;SDS011;41039;49.830;23.988;2023-07-13T02:33:58;8.30;;;6.20;;
55146;SDS011;41039;49.830;23.988;2023-07-13T02:36:23;7.60;;;6.30;;
55146;SDS011;41039;49.830;23.988;2023-07-13T02:38:49;7.53;;;5.80;;
55146;SDS011;41039;49.830;23.988;2023-07-13T02:41:14;7.85;;;5.93;;
55146;SDS011;41039;49.830;23.988;2023-07-13T02:43:39;6.37;;;5.67;;
55146;SDS011;41039;49.830;23.988;2023-07-13T02:46:05;8.65;;;6.40;;
55146;SDS011;41039;49.830;23.988;2023-07-13T02:48:35;8.65;;;6.47;;
55146;SDS011;41039;49.830;23.988;2023-07-13T02:51:01;10.13;;;6.57;;
55146;SDS011;41039;49.830;23.988;2023-07-13T02:53:26;9.88;;;6.72;;
55146;SDS011;41039;49.830;23.988;2023-07-13T02:55:51;7.70;;;6.18;;
55146;SDS011;41039;49.830;23.988;2023-07-13T02:58:17;6.57;;;5.67;;
55146;SDS011;41039;49.830;23.988;2023-07-13T03:00:45;9.90;;;6.18;;
55146;SDS011;41039;49.830;23.988;2023-07-13T03:03:11;6.97;;;5.57;;
55146;SDS011;41039;49.830;23.988;2023-07-13T03:05:38;5.93;;;5.05;;
55146;SDS011;41039;49.830;23.988;2023-07-13T03:08:03;7.25;;;5.88;;
55146;SDS011;41039;49.830;23.988;2023-07-13T03:10:29;6.25;;;5.55;;
55146;SDS011;41039;49.830;23.988;2023-07-13T03:12:54;7.93;;;6.10;;
55146;SDS011;41039;49.830;23.988;2023-07-13T03:15:19;7.33;;;6.00;;
55146;SDS011;41039;49.830;23.988;2023-07-13T03:17:44;6.60;;;5.78;;
55146;SDS011;41039;49.830;23.988;2023-07-13T03:20:10;7.32;;;6.22;;
55146;SDS011;41039;49.830;23.988;2023-07-13T03:22:35;8.93;;;7.05;;
55146;SDS011;41039;49.830;23.988;2023-07-13T03:25:00;8.20;;;5.90;;
55146;SDS011;41039;49.830;23.988;2023-07-13T03:27:25;8.03;;;6.10;;
55146;SDS011;41039;49.830;23.988;2023-07-13T03:29:51;7.90;;;5.78;;
55146;SDS011;41039;49.830;23.988;2023-07-13T03:32:16;9.18;;;5.40;;
55146;SDS011;41039;49.830;23.988;2023-07-13T03:34:41;6.90;;;5.87;;
55146;SDS011;41039;49.830;23.988;2023-07-13T03:37:07;7.05;;;5.72;;
55146;SDS011;41039;49.830;23.988;2023-07-13T03:39:32;7.20;;;5.32;;
55146;SDS011;41039;49.830;23.988;2023-07-13T03:41:57;8.47;;;5.53;;
55146;SDS011;41039;49.830;23.988;2023-07-13T03:44:22;8.00;;;6.10;;
55146;SDS011;41039;49.830;23.988;2023-07-13T03:46:48;7.63;;;6.00;;
55146;SDS011;41039;49.830;23.988;2023-07-13T03:49:13;8.02;;;5.40;;
55146;SDS011;41039;49.830;23.988;2023-07-13T03:51:38;11.70;;;8.00;;
55146;SDS011;41039;49.830;23.988;2023-07-13T03:54:03;9.70;;;6.30;;
55146;SDS011;41039;49.830;23.988;2023-07-13T03:56:29;7.60;;;6.00;;
55146;SDS011;41039;49.830;23.988;2023-07-13T03:58:55;9.77;;;5.53;;
55146;SDS011;41039;49.830;23.988;2023-07-13T04:01:21;7.63;;;5.75;;
55146;SDS011;41039;49.830;23.988;2023-07-13T04:03:47;6.90;;;5.57;;
55146;SDS011;41039;49.830;23.988;2023-07-13T04:06:20;8.20;;;5.85;;
55146;SDS011;41039;49.830;23.988;2023-07-13T04:08:46;11.15;;;6.15;;
55146;SDS011;41039;49.830;23.988;2023-07-13T04:11:12;6.88;;;5.20;;
55146;SDS011;41039;49.830;23.988;2023-07-13T04:13:37;8.25;;;5.85;;
55146;SDS011;41039;49.830;23.988;2023-07-13T04:16:03;8.30;;;6.37;;
55146;SDS011;41039;49.830;23.988;2023-07-13T04:18:28;7.97;;;6.18;;
55146;SDS011;41039;49.830;23.988;2023-07-13T04:20:53;8.17;;;6.27;;
55146;SDS011;41039;49.830;23.988;2023-07-13T04:23:18;9.07;;;7.13;;
55146;SDS011;41039;49.830;23.988;2023-07-13T04:25:44;9.82;;;6.57;;
55146;SDS011;41039;49.830;23.988;2023-07-13T04:28:10;10.38;;;6.65;;
55146;SDS011;41039;49.830;23.988;2023-07-13T04:30:35;8.63;;;6.43;;
55146;SDS011;41039;49.830;23.988;2023-07-13T04:33:00;8.35;;;6.38;;
55146;SDS011;41039;49.830;23.988;2023-07-13T04:35:25;9.00;;;6.03;;
55146;SDS011;41039;49.830;23.988;2023-07-13T04:37:51;9.60;;;6.20;;
55146;SDS011;41039;49.830;23.988;2023-07-13T04:40:19;9.90;;;6.70;;
55146;SDS011;41039;49.830;23.988;2023-07-13T04:42:45;10.30;;;6.78;;
55146;SDS011;41039;49.830;23.988;2023-07-13T04:45:11;7.43;;;5.53;;
55146;SDS011;41039;49.830;23.988;2023-07-13T04:47:36;8.55;;;6.18;;
55146;SDS011;41039;49.830;23.988;2023-07-13T04:50:02;8.85;;;6.20;;
55146;SDS011;41039;49.830;23.988;2023-07-13T04:52:27;8.20;;;6.70;;
55146;SDS011;41039;49.830;23.988;2023-07-13T04:54:53;8.75;;;6.03;;
55146;SDS011;41039;49.830;23.988;2023-07-13T04:57:18;11.85;;;5.70;;
55146;SDS011;41039;49.830;23.988;2023-07-13T04:59:43;8.67;;;6.53;;
55146;SDS011;41039;49.830;23.988;2023-07-13T05:02:08;10.90;;;7.40;;
55146;SDS011;41039;49.830;23.988;2023-07-13T05:04:33;6.93;;;5.90;;
55146;SDS011;41039;49.830;23.988;2023-07-13T05:06:59;7.87;;;5.97;;
55146;SDS011;41039;49.830;23.988;2023-07-13T05:09:24;10.15;;;6.32;;
55146;SDS011;41039;49.830;23.988;2023-07-13T05:11:49;11.80;;;6.67;;
55146;SDS011;41039;49.830;23.988;2023-07-13T05:14:14;8.27;;;5.47;;
55146;SDS011;41039;49.830;23.988;2023-07-13T05:16:41;14.63;;;7.55;;
55146;SDS011;41039;49.830;23.988;2023-07-13T05:19:07;9.20;;;5.88;;
55146;SDS011;41039;49.830;23.988;2023-07-13T05:21:32;11.27;;;6.40;;
55146;SDS011;41039;49.830;23.988;2023-07-13T05:23:57;9.87;;;6.87;;
55146;SDS011;41039;49.830;23.988;2023-07-13T05:26:23;9.10;;;6.10;;
55146;SDS011;41039;49.830;23.988;2023-07-13T05:28:48;8.43;;;6.40;;
55146;SDS011;41039;49.830;23.988;2023-07-13T05:31:13;9.13;;;6.27;;
55146;SDS011;41039;49.830;23.988;2023-07-13T05:33:39;7.28;;;5.47;;
55146;SDS011;41039;49.830;23.988;2023-07-13T05:36:04;7.10;;;5.88;;
55146;SDS011;41039;49.830;23.988;2023-07-13T05:38:30;9.20;;;6.55;;
55146;SDS011;41039;49.830;23.988;2023-07-13T05:40:55;8.18;;;5.80;;
55146;SDS011;41039;49.830;23.988;2023-07-13T05:43:21;7.00;;;5.53;;
55146;SDS011;41039;49.830;23.988;2023-07-13T05:45:46;16.90;;;9.35;;
55146;SDS011;41039;49.830;23.988;2023-07-13T05:48:12;10.90;;;8.32;;
55146;SDS011;41039;49.830;23.988;2023-07-13T05:50:37;7.45;;;5.78;;
55146;SDS011;41039;49.830;23.988;2023-07-13T05:53:02;8.20;;;5.65;;
55146;SDS011;41039;49.830;23.988;2023-07-13T05:55:28;8.95;;;5.95;;
55146;SDS011;41039;49.830;23.988;2023-07-13T05:57:53;7.30;;;5.43;;
55146;SDS011;41039;49.830;23.988;2023-07-13T06:00:18;9.73;;;6.93;;
55146;SDS011;41039;49.830;23.988;2023-07-13T06:02:44;10.27;;;6.45;;
55146;SDS011;41039;49.830;23.988;2023-07-13T06:05:09;8.43;;;5.90;;
55146;SDS011;41039;49.830;23.988;2023-07-13T06:07:34;8.60;;;6.07;;
55146;SDS011;41039;49.830;23.988;2023-07-13T06:10:00;13.67;;;6.50;;
55146;SDS011;41039;49.830;23.988;2023-07-13T06:12:25;12.82;;;6.47;;
55146;SDS011;41039;49.830;23.988;2023-07-13T06:14:51;10.75;;;5.82;;
55146;SDS011;41039;49.830;23.988;2023-07-13T06:17:16;14.10;;;6.88;;
55146;SDS011;41039;49.830;23.988;2023-07-13T06:19:41;9.90;;;6.32;;
55146;SDS011;41039;49.830;23.988;2023-07-13T06:22:07;10.02;;;7.88;;
55146;SDS011;41039;49.830;23.988;2023-07-13T06:24:32;15.52;;;7.95;;
55146;SDS011;41039;49.830;23.988;2023-07-13T06:26:57;8.60;;;6.33;;
55146;SDS011;41039;49.830;23.988;2023-07-13T06:29:22;10.55;;;6.70;;
55146;SDS011;41039;49.830;23.988;2023-07-13T06:31:48;13.48;;;6.68;;
55146;SDS011;41039;49.830;23.988;2023-07-13T06:34:13;8.00;;;6.47;;
55146;SDS011;41039;49.830;23.988;2023-07-13T06:36:38;10.07;;;6.43;;
55146;SDS011;41039;49.830;23.988;2023-07-13T06:39:04;9.55;;;6.32;;
55146;SDS011;41039;49.830;23.988;2023-07-13T06:41:29;8.57;;;6.15;;
55146;SDS011;41039;49.830;23.988;2023-07-13T06:43:55;8.60;;;6.93;;
55146;SDS011;41039;49.830;23.988;2023-07-13T06:46:21;7.43;;;5.88;;
55146;SDS011;41039;49.830;23.988;2023-07-13T06:48:46;12.85;;;7.57;;
55146;SDS011;41039;49.830;23.988;2023-07-13T06:51:12;9.50;;;6.63;;
55146;SDS011;41039;49.830;23.988;2023-07-13T06:53:37;6.68;;;5.95;;
55146;SDS011;41039;49.830;23.988;2023-07-13T06:56:02;9.70;;;5.57;;
55146;SDS011;41039;49.830;23.988;2023-07-13T06:58:27;10.32;;;6.35;;
55146;SDS011;41039;49.830;23.988;2023-07-13T07:00:53;10.97;;;6.40;;
55146;SDS011;41039;49.830;23.988;2023-07-13T07:03:18;7.80;;;6.17;;
55146;SDS011;41039;49.830;23.988;2023-07-13T07:05:43;9.23;;;6.15;;
55146;SDS011;41039;49.830;23.988;2023-07-13T07:08:09;8.80;;;5.90;;
55146;SDS011;41039;49.830;23.988;2023-07-13T07:10:34;8.93;;;6.80;;
55146;SDS011;41039;49.830;23.988;2023-07-13T07:12:59;9.55;;;5.68;;
55146;SDS011;41039;49.830;23.988;2023-07-13T07:15:25;7.07;;;6.03;;
55146;SDS011;41039;49.830;23.988;2023-07-13T07:17:50;12.07;;;7.82;;
55146;SDS011;41039;49.830;23.988;2023-07-13T07:20:16;13.17;;;8.63;;
55146;SDS011;41039;49.830;23.988;2023-07-13T07:22:41;8.10;;;5.70;;
55146;SDS011;41039;49.830;23.988;2023-07-13T07:25:06;9.63;;;8.03;;
55146;SDS011;41039;49.830;23.988;2023-07-13T07:27:32;9.50;;;6.35;;
55146;SDS011;41039;49.830;23.988;2023-07-13T07:29:57;7.25;;;5.70;;
55146;SDS011;41039;49.830;23.988;2023-07-13T07:32:22;7.95;;;6.03;;
55146;SDS011;41039;49.830;23.988;2023-07-13T07:34:48;11.65;;;9.45;;
55146;SDS011;41039;49.830;23.988;2023-07-13T07:37:13;9.60;;;7.72;;
55146;SDS011;41039;49.830;23.988;2023-07-13T07:39:39;12.77;;;6.07;;
55146;SDS011;41039;49.830;23.988;2023-07-13T07:42:04;14.48;;;8.13;;
55146;SDS011;41039;49.830;23.988;2023-07-13T07:44:33;14.48;;;6.25;;
55146;SDS011;41039;49.830;23.988;2023-07-13T07:46:59;9.68;;;6.57;;
55146;SDS011;41039;49.830;23.988;2023-07-13T07:49:24;6.47;;;5.33;;
55146;SDS011;41039;49.830;23.988;2023-07-13T07:51:49;8.48;;;5.72;;
55146;SDS011;41039;49.830;23.988;2023-07-13T07:54:15;7.43;;;5.82;;
55146;SDS011;41039;49.830;23.988;2023-07-13T07:56:40;7.45;;;5.63;;
55146;SDS011;41039;49.830;23.988;2023-07-13T07:59:05;10.27;;;5.88;;
55146;SDS011;41039;49.830;23.988;2023-07-13T08:01:30;7.10;;;5.30;;
55146;SDS011;41039;49.830;23.988;2023-07-13T08:03:56;6.75;;;5.43;;
55146;SDS011;41039;49.830;23.988;2023-07-13T08:06:21;10.93;;;6.03;;
55146;SDS011;41039;49.830;23.988;2023-07-13T08:08:47;10.63;;;6.28;;
55146;SDS011;41039;49.830;23.988;2023-07-13T08:11:12;6.57;;;5.43;;
55146;SDS011;41039;49.830;23.988;2023-07-13T08:13:37;8.15;;;5.60;;
55146;SDS011;41039;49.830;23.988;2023-07-13T08:16:04;8.80;;;5.97;;
55146;SDS011;41039;49.830;23.988;2023-07-13T08:18:29;8.13;;;5.75;;
55146;SDS011;41039;49.830;23.988;2023-07-13T08:20:54;9.37;;;5.80;;
55146;SDS011;41039;49.830;23.988;2023-07-13T08:23:23;7.78;;;6.10;;
55146;SDS011;41039;49.830;23.988;2023-07-13T08:25:52;8.57;;;5.85;;
55146;SDS011;41039;49.830;23.988;2023-07-13T08:28:18;7.18;;;6.15;;
55146;SDS011;41039;49.830;23.988;2023-07-13T08:30:43;6.80;;;5.90;;
55146;SDS011;41039;49.830;23.988;2023-07-13T08:33:09;8.00;;;5.77;;
55146;SDS011;41039;49.830;23.988;2023-07-13T08:35:34;11.48;;;6.20;;
55146;SDS011;41039;49.830;23.988;2023-07-13T08:37:59;7.97;;;5.73;;
55146;SDS011;41039;49.830;23.988;2023-07-13T08:40:25;6.72;;;5.82;;
55146;SDS011;41039;49.830;23.988;2023-07-13T08:42:54;9.35;;;6.47;;
55146;SDS011;41039;49.830;23.988;2023-07-13T08:45:30;9.60;;;6.00;;
55146;SDS011;41039;49.830;23.988;2023-07-13T08:48:03;9.07;;;6.43;;
55146;SDS011;41039;49.830;23.988;2023-07-13T08:50:34;11.05;;;6.53;;
55146;SDS011;41039;49.830;23.988;2023-07-13T08:53:01;11.57;;;6.65;;
55146;SDS011;41039;49.830;23.988;2023-07-13T08:55:29;11.23;;;6.03;;
55146;SDS011;41039;49.830;23.988;2023-07-13T08:58:00;9.20;;;5.90;;
55146;SDS011;41039;49.830;23.988;2023-07-13T09:00:33;7.60;;;5.38;;
55146;SDS011;41039;49.830;23.988;2023-07-13T09:02:59;10.02;;;6.40;;
55146;SDS011;41039;49.830;23.988;2023-07-13T09:05:36;8.23;;;6.03;;
55146;SDS011;41039;49.830;23.988;2023-07-13T09:10:46;7.05;;;5.63;;
55146;SDS011;41039;49.830;23.988;2023-07-13T09:15:56;7.18;;;5.85;;
55146;SDS011;41039;49.830;23.988;2023-07-13T09:18:33;12.07;;;5.70;;
55146;SDS011;41039;49.830;23.988;2023-07-13T09:21:22;7.38;;;6.20;;
55146;SDS011;41039;49.830;23.988;2023-07-13T09:23:48;7.07;;;5.82;;
55146;SDS011;41039;49.830;23.988;2023-07-13T09:28:42;9.50;;;6.40;;
55146;SDS011;41039;49.830;23.988;2023-07-13T09:31:15;11.10;;;8.70;;
55146;SDS011;41039;49.830;23.988;2023-07-13T09:33:41;11.32;;;7.03;;
55146;SDS011;41039;49.830;23.988;2023-07-13T09:38:43;10.98;;;7.57;;
55146;SDS011;41039;49.830;23.988;2023-07-13T09:44:27;10.68;;;8.02;;
55146;SDS011;41039;49.830;23.988;2023-07-13T09:46:46;8.45;;;5.88;;
55146;SDS011;41039;49.830;23.988;2023-07-13T09:49:11;10.90;;;7.13;;
55146;SDS011;41039;49.830;23.988;2023-07-13T09:51:42;10.18;;;6.82;;
55146;SDS011;41039;49.830;23.988;2023-07-13T09:54:19;10.07;;;7.18;;
55146;SDS011;41039;49.830;23.988;2023-07-13T09:56:45;14.38;;;6.60;;
55146;SDS011;41039;49.830;23.988;2023-07-13T09:59:20;9.20;;;6.13;;
55146;SDS011;41039;49.830;23.988;2023-07-13T10:01:46;10.57;;;7.20;;
55146;SDS011;41039;49.830;23.988;2023-07-13T10:04:13;7.93;;;6.47;;
55146;SDS011;41039;49.830;23.988;2023-07-13T10:06:43;7.68;;;6.55;;
55146;SDS011;41039;49.830;23.988;2023-07-13T10:09:09;7.38;;;6.50;;
55146;SDS011;41039;49.830;23.988;2023-07-13T10:11:35;7.95;;;6.47;;
55146;SDS011;41039;49.830;23.988;2023-07-13T10:14:23;9.65;;;7.15;;
55146;SDS011;41039;49.830;23.988;2023-07-13T10:16:52;12.40;;;9.43;;
55146;SDS011;41039;49.830;23.988;2023-07-13T10:19:23;10.02;;;7.80;;
55146;SDS011;41039;49.830;23.988;2023-07-13T10:24:21;8.18;;;7.22;;
55146;SDS011;41039;49.830;23.988;2023-07-13T10:29:34;8.77;;;6.38;;
55146;SDS011;41039;49.830;23.988;2023-07-13T10:32:00;7.85;;;6.78;;
55146;SDS011;41039;49.830;23.988;2023-07-13T10:34:26;10.02;;;7.38;;
55146;SDS011;41039;49.830;23.988;2023-07-13T10:36:52;10.88;;;9.52;;
55146;SDS011;41039;49.830;23.988;2023-07-13T10:39:19;10.95;;;7.88;;
55146;SDS011;41039;49.830;23.988;2023-07-13T10:41:44;9.05;;;7.03;;
55146;SDS011;41039;49.830;23.988;2023-07-13T10:44:20;11.40;;;7.80;;
55146;SDS011;41039;49.830;23.988;2023-07-13T10:46:46;9.40;;;6.97;;
55146;SDS011;41039;49.830;23.988;2023-07-13T10:49:12;8.70;;;7.55;;
55146;SDS011;41039;49.830;23.988;2023-07-13T10:51:37;11.52;;;7.65;;
55146;SDS011;41039;49.830;23.988;2023-07-13T10:56:44;12.40;;;10.52;;
55146;SDS011;41039;49.830;23.988;2023-07-13T10:59:12;11.13;;;8.73;;
55146;SDS011;41039;49.830;23.988;2023-07-13T11:01:51;11.52;;;9.45;;
55146;SDS011;41039;49.830;23.988;2023-07-13T11:04:18;11.10;;;9.23;;
55146;SDS011;41039;49.830;23.988;2023-07-13T11:06:45;10.25;;;8.75;;
55146;SDS011;41039;49.830;23.988;2023-07-13T11:11:51;10.40;;;8.52;;
55146;SDS011;41039;49.830;23.988;2023-07-13T11:14:28;11.40;;;10.10;;
55146;SDS011;41039;49.830;23.988;2023-07-13T11:16:54;14.70;;;10.88;;
55146;SDS011;41039;49.830;23.988;2023-07-13T11:24:29;12.00;;;9.13;;
55146;SDS011;41039;49.830;23.988;2023-07-13T11:26:55;10.60;;;8.35;;
55146;SDS011;41039;49.830;23.988;2023-07-13T11:31:53;12.73;;;10.23;;
55146;SDS011;41039;49.830;23.988;2023-07-13T11:34:21;13.68;;;9.48;;
55146;SDS011;41039;49.830;23.988;2023-07-13T11:36:50;9.00;;;7.97;;
55146;SDS011;41039;49.830;23.988;2023-07-13T11:39:24;10.40;;;9.40;;
55146;SDS011;41039;49.830;23.988;2023-07-13T11:41:55;7.90;;;5.97;;
55146;SDS011;41039;49.830;23.988;2023-07-13T11:44:22;7.60;;;5.47;;
55146;SDS011;41039;49.830;23.988;2023-07-13T11:46:49;8.00;;;6.32;;
55146;SDS011;41039;49.830;23.988;2023-07-13T11:49:16;9.77;;;5.35;;
55146;SDS011;41039;49.830;23.988;2023-07-13T11:51:42;10.68;;;6.03;;
55146;SDS011;41039;49.830;23.988;2023-07-13T11:54:16;6.43;;;5.55;;
55146;SDS011;41039;49.830;23.988;2023-07-13T11:56:42;7.55;;;5.70;;
55146;SDS011;41039;49.830;23.988;2023-07-13T11:59:07;6.93;;;5.20;;
55146;SDS011;41039;49.830;23.988;2023-07-13T12:01:36;6.03;;;4.95;;
55146;SDS011;41039;49.830;23.988;2023-07-13T12:04:08;5.88;;;5.15;;
55146;SDS011;41039;49.830;23.988;2023-07-13T12:06:35;5.78;;;4.68;;
55146;SDS011;41039;49.830;23.988;2023-07-13T12:09:10;5.82;;;4.53;;
55146;SDS011;41039;49.830;23.988;2023-07-13T12:11:39;7.65;;;6.47;;
55146;SDS011;41039;49.830;23.988;2023-07-13T12:14:04;6.18;;;5.18;;
55146;SDS011;41039;49.830;23.988;2023-07-13T12:16:30;7.83;;;6.33;;
55146;SDS011;41039;49.830;23.988;2023-07-13T12:18:57;9.90;;;7.45;;
55146;SDS011;41039;49.830;23.988;2023-07-13T12:21:31;7.55;;;4.82;;
55146;SDS011;41039;49.830;23.988;2023-07-13T12:23:57;10.88;;;8.65;;
55146;SDS011;41039;49.830;23.988;2023-07-13T12:26:22;7.85;;;4.50;;
55146;SDS011;41039;49.830;23.988;2023-07-13T12:28:49;6.93;;;4.28;;
55146;SDS011;41039;49.830;23.988;2023-07-13T12:31:22;6.88;;;4.63;;
55146;SDS011;41039;49.830;23.988;2023-07-13T12:33:48;4.95;;;3.88;;
55146;SDS011;41039;49.830;23.988;2023-07-13T12:36:20;5.03;;;3.47;;
55146;SDS011;41039;49.830;23.988;2023-07-13T12:38:46;5.47;;;4.00;;
55146;SDS011;41039;49.830;23.988;2023-07-13T12:41:12;9.13;;;5.60;;
55146;SDS011;41039;49.830;23.988;2023-07-13T12:43:37;6.20;;;4.10;;
55146;SDS011;41039;49.830;23.988;2023-07-13T12:46:03;6.47;;;4.77;;
55146;SDS011;41039;49.830;23.988;2023-07-13T12:48:28;6.15;;;3.85;;
55146;SDS011;41039;49.830;23.988;2023-07-13T12:50:54;5.95;;;4.00;;
55146;SDS011;41039;49.830;23.988;2023-07-13T12:53:23;4.97;;;3.65;;
55146;SDS011;41039;49.830;23.988;2023-07-13T12:55:54;5.32;;;3.80;;
55146;SDS011;41039;49.830;23.988;2023-07-13T12:58:27;3.92;;;3.33;;
55146;SDS011;41039;49.830;23.988;2023-07-13T13:00:59;4.53;;;3.33;;
55146;SDS011;41039;49.830;23.988;2023-07-13T13:03:30;5.15;;;3.55;;
55146;SDS011;41039;49.830;23.988;2023-07-13T13:08:24;6.93;;;3.38;;
55146;SDS011;41039;49.830;23.988;2023-07-13T13:10:50;4.50;;;3.40;;
55146;SDS011;41039;49.830;23.988;2023-07-13T13:13:15;7.73;;;4.17;;
55146;SDS011;41039;49.830;23.988;2023-07-13T13:15:40;6.30;;;4.10;;
55146;SDS011;41039;49.830;23.988;2023-07-13T13:18:11;4.57;;;3.38;;
55146;SDS011;41039;49.830;23.988;2023-07-13T13:20:39;5.05;;;3.30;;
55146;SDS011;41039;49.830;23.988;2023-07-13T13:23:08;6.78;;;3.75;;
55146;SDS011;41039;49.830;23.988;2023-07-13T13:25:34;4.35;;;3.65;;
55146;SDS011;41039;49.830;23.988;2023-07-13T13:27:59;7.90;;;4.45;;
55146;SDS011;41039;49.830;23.988;2023-07-13T13:30:25;6.10;;;4.37;;
55146;SDS011;41039;49.830;23.988;2023-07-13T13:32:50;5.83;;;4.70;;
55146;SDS011;41039;49.830;23.988;2023-07-13T13:35:19;6.17;;;4.80;;
55146;SDS011;41039;49.830;23.988;2023-07-13T13:37:45;7.13;;;4.53;;
55146;SDS011;41039;49.830;23.988;2023-07-13T13:42:39;7.18;;;6.35;;
55146;SDS011;41039;49.830;23.988;2023-07-13T13:45:04;9.45;;;5.88;;
55146;SDS011;41039;49.830;23.988;2023-07-13T13:47:32;7.88;;;5.95;;
55146;SDS011;41039;49.830;23.988;2023-07-13T13:49:58;9.38;;;6.82;;
55146;SDS011;41039;49.830;23.988;2023-07-13T13:52:25;8.80;;;5.50;;
55146;SDS011;41039;49.830;23.988;2023-07-13T13:54:51;6.55;;;4.70;;
55146;SDS011;41039;49.830;23.988;2023-07-13T13:57:20;6.80;;;4.72;;
55146;SDS011;41039;49.830;23.988;2023-07-13T13:59:46;5.75;;;4.53;;
55146;SDS011;41039;49.830;23.988;2023-07-13T14:02:19;9.18;;;5.93;;
55146;SDS011;41039;49.830;23.988;2023-07-13T14:04:47;11.10;;;7.05;;
55146;SDS011;41039;49.830;23.988;2023-07-13T14:07:12;9.10;;;6.93;;
55146;SDS011;41039;49.830;23.988;2023-07-13T14:09:37;9.60;;;7.37;;
55146;SDS011;41039;49.830;23.988;2023-07-13T14:12:03;10.65;;;8.20;;
55146;SDS011;41039;49.830;23.988;2023-07-13T14:14:29;7.28;;;6.53;;
55146;SDS011;41039;49.830;23.988;2023-07-13T14:16:55;10.15;;;7.63;;
55146;SDS011;41039;49.830;23.988;2023-07-13T14:19:21;7.10;;;5.78;;
55146;SDS011;41039;49.830;23.988;2023-07-13T14:21:47;7.60;;;5.53;;
55146;SDS011;41039;49.830;23.988;2023-07-13T14:24:14;6.60;;;5.07;;
55146;SDS011;41039;49.830;23.988;2023-07-13T14:26:40;7.17;;;6.00;;
55146;SDS011;41039;49.830;23.988;2023-07-13T14:29:10;10.50;;;5.80;;
55146;SDS011;41039;49.830;23.988;2023-07-13T14:31:37;8.13;;;5.50;;
55146;SDS011;41039;49.830;23.988;2023-07-13T14:34:02;10.30;;;5.90;;
55146;SDS011;41039;49.830;23.988;2023-07-13T14:36:34;8.00;;;6.07;;
55146;SDS011;41039;49.830;23.988;2023-07-13T14:39:05;7.03;;;6.32;;
55146;SDS011;41039;49.830;23.988;2023-07-13T14:41:36;8.70;;;6.13;;
55146;SDS011;41039;49.830;23.988;2023-07-13T14:44:01;8.33;;;5.67;;
55146;SDS011;41039;49.830;23.988;2023-07-13T14:46:28;6.90;;;5.83;;
55146;SDS011;41039;49.830;23.988;2023-07-13T14:49:04;7.25;;;6.43;;
55146;SDS011;41039;49.830;23.988;2023-07-13T14:51:31;5.75;;;4.82;;
55146;SDS011;41039;49.830;23.988;2023-07-13T14:53:57;7.53;;;5.68;;
55146;SDS011;41039;49.830;23.988;2023-07-13T14:56:22;6.85;;;5.10;;
55146;SDS011;41039;49.830;23.988;2023-07-13T14:58:48;14.63;;;7.60;;
55146;SDS011;41039;49.830;23.988;2023-07-13T15:01:13;7.03;;;5.07;;
55146;SDS011;41039;49.830;23.988;2023-07-13T15:03:43;7.25;;;5.28;;
55146;SDS011;41039;49.830;23.988;2023-07-13T15:06:10;5.97;;;5.13;;